sensor_id;sensor_type;location;lat;lon;timestamp;temperature;humidity
24148;DHT22;12309;51.450;-2.624;2022-10-17T00:01:33;15.90;99.90
24148;DHT22;12309;51.450;-2.624;2022-10-17T00:03:58;15.70;99.90
24148;DHT22;12309;51.450;-2.624;2022-10-17T00:06:24;15.80;99.90
24148;DHT22;12309;51.450;-2.624;2022-10-17T00:08:50;16.00;99.90
24148;DHT22;12309;51.450;-2.624;2022-10-17T00:11:21;15.90;99.90
24148;DHT22;12309;51.450;-2.624;2022-10-17T00:13:48;16.30;99.90
24148;DHT22;12309;51.450;-2.624;2022-10-17T00:16:23;16.20;99.90
24148;DHT22;12309;51.450;-2.624;2022-10-17T00:18:49;16.10;99.90
24148;DHT22;12309;51.450;-2.624;2022-10-17T00:21:19;15.90;99.90
24148;DHT22;12309;51.450;-2.624;2022-10-17T00:23:45;16.30;99.90
24148;DHT22;12309;51.450;-2.624;2022-10-17T00:26:11;16.20;99.90
24148;DHT22;12309;51.450;-2.624;2022-10-17T00:28:37;16.30;99.90
24148;DHT22;12309;51.450;-2.624;2022-10-17T00:31:05;16.10;99.90
24148;DHT22;12309;51.450;-2.624;2022-10-17T00:33:32;16.30;99.90
24148;DHT22;12309;51.450;-2.624;2022-10-17T00:36:10;16.10;99.90
24148;DHT22;12309;51.450;-2.624;2022-10-17T00:38:38;16.30;99.90
24148;DHT22;12309;51.450;-2.624;2022-10-17T00:41:05;16.20;99.90
24148;DHT22;12309;51.450;-2.624;2022-10-17T00:43:50;16.00;99.90
24148;DHT22;12309;51.450;-2.624;2022-10-17T00:46:16;16.00;99.90
24148;DHT22;12309;51.450;-2.624;2022-10-17T00:48:42;16.10;99.90
24148;DHT22;12309;51.450;-2.624;2022-10-17T00:51:08;16.10;99.90
24148;DHT22;12309;51.450;-2.624;2022-10-17T00:53:35;16.10;99.90
24148;DHT22;12309;51.450;-2.624;2022-10-17T00:56:01;16.10;99.90
24148;DHT22;12309;51.450;-2.624;2022-10-17T01:00:53;16.30;99.90
24148;DHT22;12309;51.450;-2.624;2022-10-17T01:03:18;16.10;99.90
24148;DHT22;12309;51.450;-2.624;2022-10-17T01:05:45;16.30;99.90
24148;DHT22;12309;51.450;-2.624;2022-10-17T01:08:11;16.10;99.90
24148;DHT22;12309;51.450;-2.624;2022-10-17T01:11:08;16.30;99.90
24148;DHT22;12309;51.450;-2.624;2022-10-17T01:16:31;16.30;99.90
24148;DHT22;12309;51.450;-2.624;2022-10-17T01:29:59;16.30;99.90
24148;DHT22;12309;51.450;-2.624;2022-10-17T01:35:21;16.40;99.90
24148;DHT22;12309;51.450;-2.624;2022-10-17T01:37:53;16.50;99.90
24148;DHT22;12309;51.450;-2.624;2022-10-17T01:40:41;16.50;99.90
24148;DHT22;12309;51.450;-2.624;2022-10-17T01:43:12;16.40;99.90
24148;DHT22;12309;51.450;-2.624;2022-10-17T01:45:58;16.40;99.90
24148;DHT22;12309;51.450;-2.624;2022-10-17T01:48:34;16.40;99.90
24148;DHT22;12309;51.450;-2.624;2022-10-17T01:51:10;16.30;99.90
24148;DHT22;12309;51.450;-2.624;2022-10-17T01:53:41;16.40;99.90
24148;DHT22;12309;51.450;-2.624;2022-10-17T01:56:10;16.50;99.90
24148;DHT22;12309;51.450;-2.624;2022-10-17T01:58:42;16.60;99.90
24148;DHT22;12309;51.450;-2.624;2022-10-17T02:01:10;16.50;99.90
24148;DHT22;12309;51.450;-2.624;2022-10-17T02:03:37;16.50;99.90
24148;DHT22;12309;51.450;-2.624;2022-10-17T02:06:05;16.40;99.90
24148;DHT22;12309;51.450;-2.624;2022-10-17T02:08:51;16.60;99.90
24148;DHT22;12309;51.450;-2.624;2022-10-17T02:11:21;16.50;99.90
24148;DHT22;12309;51.450;-2.624;2022-10-17T02:14:02;16.60;99.90
24148;DHT22;12309;51.450;-2.624;2022-10-17T02:19:26;16.40;99.90
24148;DHT22;12309;51.450;-2.624;2022-10-17T02:30:11;16.30;99.90
24148;DHT22;12309;51.450;-2.624;2022-10-17T02:35:19;16.40;99.90
24148;DHT22;12309;51.450;-2.624;2022-10-17T02:37:47;16.10;99.90
24148;DHT22;12309;51.450;-2.624;2022-10-17T02:40:14;16.30;99.90
24148;DHT22;12309;51.450;-2.624;2022-10-17T02:42:43;16.30;99.90
24148;DHT22;12309;51.450;-2.624;2022-10-17T02:45:11;16.30;99.90
24148;DHT22;12309;51.450;-2.624;2022-10-17T02:48:34;16.30;99.90
24148;DHT22;12309;51.450;-2.624;2022-10-17T02:50:55;16.00;99.90
24148;DHT22;12309;51.450;-2.624;2022-10-17T02:53:46;16.40;99.90
24148;DHT22;12309;51.450;-2.624;2022-10-17T02:56:17;16.20;99.90
24148;DHT22;12309;51.450;-2.624;2022-10-17T02:58:47;16.20;99.90
24148;DHT22;12309;51.450;-2.624;2022-10-17T03:01:15;16.10;99.90
24148;DHT22;12309;51.450;-2.624;2022-10-17T03:06:07;15.70;99.90
24148;DHT22;12309;51.450;-2.624;2022-10-17T03:08:33;15.60;99.90
24148;DHT22;12309;51.450;-2.624;2022-10-17T03:10:59;15.60;99.90
24148;DHT22;12309;51.450;-2.624;2022-10-17T03:13:24;15.60;99.90
24148;DHT22;12309;51.450;-2.624;2022-10-17T03:15:50;15.30;99.90
24148;DHT22;12309;51.450;-2.624;2022-10-17T03:18:16;15.50;99.90
24148;DHT22;12309;51.450;-2.624;2022-10-17T03:20:41;15.70;99.90
24148;DHT22;12309;51.450;-2.624;2022-10-17T03:23:07;15.10;99.90
24148;DHT22;12309;51.450;-2.624;2022-10-17T03:25:32;15.40;99.90
24148;DHT22;12309;51.450;-2.624;2022-10-17T03:27:58;15.70;99.90
24148;DHT22;12309;51.450;-2.624;2022-10-17T03:30:26;15.30;99.90
24148;DHT22;12309;51.450;-2.624;2022-10-17T03:32:52;15.50;99.90
24148;DHT22;12309;51.450;-2.624;2022-10-17T03:35:17;15.50;99.90
24148;DHT22;12309;51.450;-2.624;2022-10-17T03:37:43;15.50;99.90
24148;DHT22;12309;51.450;-2.624;2022-10-17T03:40:09;15.40;99.90
24148;DHT22;12309;51.450;-2.624;2022-10-17T03:42:35;15.50;99.90
24148;DHT22;12309;51.450;-2.624;2022-10-17T03:45:00;15.70;99.90
24148;DHT22;12309;51.450;-2.624;2022-10-17T03:47:27;15.50;99.90
24148;DHT22;12309;51.450;-2.624;2022-10-17T03:52:19;15.40;99.90
24148;DHT22;12309;51.450;-2.624;2022-10-17T03:54:44;15.30;99.90
24148;DHT22;12309;51.450;-2.624;2022-10-17T03:57:10;15.40;99.90
24148;DHT22;12309;51.450;-2.624;2022-10-17T03:59:36;15.40;99.90
24148;DHT22;12309;51.450;-2.624;2022-10-17T04:02:01;15.50;99.90
24148;DHT22;12309;51.450;-2.624;2022-10-17T04:04:27;15.30;99.90
24148;DHT22;12309;51.450;-2.624;2022-10-17T04:06:52;15.30;99.90
24148;DHT22;12309;51.450;-2.624;2022-10-17T04:09:18;15.20;99.90
24148;DHT22;12309;51.450;-2.624;2022-10-17T04:11:43;14.90;99.90
24148;DHT22;12309;51.450;-2.624;2022-10-17T04:14:09;15.20;99.90
24148;DHT22;12309;51.450;-2.624;2022-10-17T04:16:35;15.20;99.90
24148;DHT22;12309;51.450;-2.624;2022-10-17T04:19:01;15.00;99.90
24148;DHT22;12309;51.450;-2.624;2022-10-17T04:21:27;15.20;99.90
24148;DHT22;12309;51.450;-2.624;2022-10-17T04:23:58;15.50;99.90
24148;DHT22;12309;51.450;-2.624;2022-10-17T04:26:24;15.10;99.90
24148;DHT22;12309;51.450;-2.624;2022-10-17T04:28:50;14.80;99.90
24148;DHT22;12309;51.450;-2.624;2022-10-17T04:31:16;15.00;99.90
24148;DHT22;12309;51.450;-2.624;2022-10-17T04:33:43;14.80;99.90
24148;DHT22;12309;51.450;-2.624;2022-10-17T04:36:13;14.80;99.90
24148;DHT22;12309;51.450;-2.624;2022-10-17T04:38:39;14.80;99.90
24148;DHT22;12309;51.450;-2.624;2022-10-17T04:41:07;14.70;99.90
24148;DHT22;12309;51.450;-2.624;2022-10-17T04:43:34;14.80;99.90
24148;DHT22;12309;51.450;-2.624;2022-10-17T04:46:02;14.60;99.90
24148;DHT22;12309;51.450;-2.624;2022-10-17T04:48:28;14.50;99.90
24148;DHT22;12309;51.450;-2.624;2022-10-17T04:50:54;14.60;99.90
24148;DHT22;12309;51.450;-2.624;2022-10-17T04:53:21;14.60;99.90
24148;DHT22;12309;51.450;-2.624;2022-10-17T04:55:46;14.70;99.90
24148;DHT22;12309;51.450;-2.624;2022-10-17T04:58:12;14.70;99.90
24148;DHT22;12309;51.450;-2.624;2022-10-17T05:00:37;14.50;99.90
24148;DHT22;12309;51.450;-2.624;2022-10-17T05:03:03;14.50;99.90
24148;DHT22;12309;51.450;-2.624;2022-10-17T05:05:29;14.50;99.90
24148;DHT22;12309;51.450;-2.624;2022-10-17T05:07:55;14.60;99.90
24148;DHT22;12309;51.450;-2.624;2022-10-17T05:10:20;14.50;99.90
24148;DHT22;12309;51.450;-2.624;2022-10-17T05:12:49;14.50;99.90
24148;DHT22;12309;51.450;-2.624;2022-10-17T05:15:15;14.30;99.90
24148;DHT22;12309;51.450;-2.624;2022-10-17T05:17:41;14.40;99.90
24148;DHT22;12309;51.450;-2.624;2022-10-17T05:20:07;14.40;99.90
24148;DHT22;12309;51.450;-2.624;2022-10-17T05:22:33;14.30;99.90
24148;DHT22;12309;51.450;-2.624;2022-10-17T05:24:59;14.60;99.90
24148;DHT22;12309;51.450;-2.624;2022-10-17T05:27:24;14.20;99.90
24148;DHT22;12309;51.450;-2.624;2022-10-17T05:29:50;14.40;99.90
24148;DHT22;12309;51.450;-2.624;2022-10-17T05:34:42;14.20;99.90
24148;DHT22;12309;51.450;-2.624;2022-10-17T05:39:33;14.30;99.90
24148;DHT22;12309;51.450;-2.624;2022-10-17T05:41:59;14.10;99.90
24148;DHT22;12309;51.450;-2.624;2022-10-17T05:44:24;14.10;99.90
24148;DHT22;12309;51.450;-2.624;2022-10-17T05:46:50;14.10;99.90
24148;DHT22;12309;51.450;-2.624;2022-10-17T05:51:42;14.30;99.90
24148;DHT22;12309;51.450;-2.624;2022-10-17T05:54:08;14.30;99.90
24148;DHT22;12309;51.450;-2.624;2022-10-17T05:56:34;14.40;99.90
24148;DHT22;12309;51.450;-2.624;2022-10-17T05:59:00;14.10;99.90
24148;DHT22;12309;51.450;-2.624;2022-10-17T06:01:26;14.40;99.90
24148;DHT22;12309;51.450;-2.624;2022-10-17T06:03:51;12.00;99.90
24148;DHT22;12309;51.450;-2.624;2022-10-17T06:06:17;14.30;99.90
24148;DHT22;12309;51.450;-2.624;2022-10-17T06:08:44;14.30;99.90
24148;DHT22;12309;51.450;-2.624;2022-10-17T06:11:11;14.20;99.90
24148;DHT22;12309;51.450;-2.624;2022-10-17T06:13:37;14.20;99.90
24148;DHT22;12309;51.450;-2.624;2022-10-17T06:16:03;14.00;99.90
24148;DHT22;12309;51.450;-2.624;2022-10-17T06:18:28;14.10;99.90
24148;DHT22;12309;51.450;-2.624;2022-10-17T06:21:04;14.10;99.90
24148;DHT22;12309;51.450;-2.624;2022-10-17T06:23:30;14.10;99.90
24148;DHT22;12309;51.450;-2.624;2022-10-17T06:26:03;14.10;99.90
24148;DHT22;12309;51.450;-2.624;2022-10-17T06:28:29;14.40;99.90
24148;DHT22;12309;51.450;-2.624;2022-10-17T06:30:55;14.10;99.90
24148;DHT22;12309;51.450;-2.624;2022-10-17T06:33:21;13.90;99.90
24148;DHT22;12309;51.450;-2.624;2022-10-17T06:35:52;12.00;99.90
24148;DHT22;12309;51.450;-2.624;2022-10-17T06:38:18;14.10;99.90
24148;DHT22;12309;51.450;-2.624;2022-10-17T06:40:43;14.10;99.90
24148;DHT22;12309;51.450;-2.624;2022-10-17T06:43:09;14.10;99.90
24148;DHT22;12309;51.450;-2.624;2022-10-17T06:45:37;13.90;99.90
24148;DHT22;12309;51.450;-2.624;2022-10-17T06:48:03;14.10;99.90
24148;DHT22;12309;51.450;-2.624;2022-10-17T06:50:29;14.10;99.90
24148;DHT22;12309;51.450;-2.624;2022-10-17T06:52:55;14.20;99.90
24148;DHT22;12309;51.450;-2.624;2022-10-17T06:55:20;14.10;99.90
24148;DHT22;12309;51.450;-2.624;2022-10-17T06:57:46;14.40;99.90
24148;DHT22;12309;51.450;-2.624;2022-10-17T07:00:12;14.40;99.90
24148;DHT22;12309;51.450;-2.624;2022-10-17T07:02:38;14.00;99.90
24148;DHT22;12309;51.450;-2.624;2022-10-17T07:05:03;14.00;99.90
24148;DHT22;12309;51.450;-2.624;2022-10-17T07:07:30;14.10;99.90
24148;DHT22;12309;51.450;-2.624;2022-10-17T07:09:57;14.00;99.90
24148;DHT22;12309;51.450;-2.624;2022-10-17T07:12:23;14.20;99.90
24148;DHT22;12309;51.450;-2.624;2022-10-17T07:14:49;13.90;99.90
24148;DHT22;12309;51.450;-2.624;2022-10-17T07:17:18;13.60;99.90
24148;DHT22;12309;51.450;-2.624;2022-10-17T07:19:44;14.30;99.90
24148;DHT22;12309;51.450;-2.624;2022-10-17T07:22:10;14.30;99.90
24148;DHT22;12309;51.450;-2.624;2022-10-17T07:24:36;14.20;99.90
24148;DHT22;12309;51.450;-2.624;2022-10-17T07:27:02;14.00;99.90
24148;DHT22;12309;51.450;-2.624;2022-10-17T07:29:28;14.10;99.90
24148;DHT22;12309;51.450;-2.624;2022-10-17T07:31:53;14.40;99.90
24148;DHT22;12309;51.450;-2.624;2022-10-17T07:34:19;14.20;99.90
24148;DHT22;12309;51.450;-2.624;2022-10-17T07:36:45;14.40;99.90
24148;DHT22;12309;51.450;-2.624;2022-10-17T07:39:11;14.50;99.90
24148;DHT22;12309;51.450;-2.624;2022-10-17T07:41:36;14.30;99.90
24148;DHT22;12309;51.450;-2.624;2022-10-17T07:44:02;14.40;99.90
24148;DHT22;12309;51.450;-2.624;2022-10-17T07:46:28;14.60;99.90
24148;DHT22;12309;51.450;-2.624;2022-10-17T07:51:20;14.60;99.90
24148;DHT22;12309;51.450;-2.624;2022-10-17T07:53:46;14.90;99.90
24148;DHT22;12309;51.450;-2.624;2022-10-17T07:56:12;14.70;99.90
24148;DHT22;12309;51.450;-2.624;2022-10-17T07:58:38;18.40;99.90
24148;DHT22;12309;51.450;-2.624;2022-10-17T08:01:06;14.70;99.90
24148;DHT22;12309;51.450;-2.624;2022-10-17T08:03:32;14.60;99.90
24148;DHT22;12309;51.450;-2.624;2022-10-17T08:05:59;14.70;99.90
24148;DHT22;12309;51.450;-2.624;2022-10-17T08:08:26;14.60;99.90
24148;DHT22;12309;51.450;-2.624;2022-10-17T08:10:53;14.50;99.90
24148;DHT22;12309;51.450;-2.624;2022-10-17T08:13:20;14.70;99.90
24148;DHT22;12309;51.450;-2.624;2022-10-17T08:15:45;14.80;99.90
24148;DHT22;12309;51.450;-2.624;2022-10-17T08:18:13;14.80;99.90
24148;DHT22;12309;51.450;-2.624;2022-10-17T08:20:40;14.70;99.90
24148;DHT22;12309;51.450;-2.624;2022-10-17T08:23:05;14.90;99.90
24148;DHT22;12309;51.450;-2.624;2022-10-17T08:25:31;15.00;99.90
24148;DHT22;12309;51.450;-2.624;2022-10-17T08:27:57;14.90;99.90
24148;DHT22;12309;51.450;-2.624;2022-10-17T08:32:49;15.30;99.90
24148;DHT22;12309;51.450;-2.624;2022-10-17T08:35:15;15.30;99.90
24148;DHT22;12309;51.450;-2.624;2022-10-17T08:37:41;15.30;99.90
24148;DHT22;12309;51.450;-2.624;2022-10-17T08:40:08;15.30;99.90
24148;DHT22;12309;51.450;-2.624;2022-10-17T08:43:01;15.40;99.90
24148;DHT22;12309;51.450;-2.624;2022-10-17T08:48:09;15.50;99.90
24148;DHT22;12309;51.450;-2.624;2022-10-17T08:53:22;15.60;99.90
24148;DHT22;12309;51.450;-2.624;2022-10-17T08:55:51;15.60;99.90
24148;DHT22;12309;51.450;-2.624;2022-10-17T08:58:30;15.80;99.90
24148;DHT22;12309;51.450;-2.624;2022-10-17T09:06:33;16.00;99.90
24148;DHT22;12309;51.450;-2.624;2022-10-17T09:09:19;15.80;99.90
24148;DHT22;12309;51.450;-2.624;2022-10-17T09:12:15;15.90;99.90
24148;DHT22;12309;51.450;-2.624;2022-10-17T09:17:32;16.00;99.90
24148;DHT22;12309;51.450;-2.624;2022-10-17T09:20:11;16.10;99.90
24148;DHT22;12309;51.450;-2.624;2022-10-17T09:22:42;16.40;99.90
24148;DHT22;12309;51.450;-2.624;2022-10-17T09:25:12;16.40;99.90
24148;DHT22;12309;51.450;-2.624;2022-10-17T09:27:43;16.40;99.90
24148;DHT22;12309;51.450;-2.624;2022-10-17T09:30:46;16.60;99.90
24148;DHT22;12309;51.450;-2.624;2022-10-17T09:33:17;16.60;99.90
24148;DHT22;12309;51.450;-2.624;2022-10-17T09:35:43;16.70;99.90
24148;DHT22;12309;51.450;-2.624;2022-10-17T09:38:19;16.70;99.90
24148;DHT22;12309;51.450;-2.624;2022-10-17T09:40:54;16.70;99.90
24148;DHT22;12309;51.450;-2.624;2022-10-17T09:43:21;16.50;99.90
24148;DHT22;12309;51.450;-2.624;2022-10-17T09:46:07;16.90;99.90
24148;DHT22;12309;51.450;-2.624;2022-10-17T09:48:44;16.80;99.90
24148;DHT22;12309;51.450;-2.624;2022-10-17T09:51:12;16.80;99.90
24148;DHT22;12309;51.450;-2.624;2022-10-17T09:53:41;17.10;99.90
24148;DHT22;12309;51.450;-2.624;2022-10-17T09:56:12;16.90;99.90
24148;DHT22;12309;51.450;-2.624;2022-10-17T09:58:47;17.20;99.90
24148;DHT22;12309;51.450;-2.624;2022-10-17T10:03:48;17.10;99.90
24148;DHT22;12309;51.450;-2.624;2022-10-17T10:06:19;17.40;99.90
24148;DHT22;12309;51.450;-2.624;2022-10-17T10:08:56;17.30;99.90
24148;DHT22;12309;51.450;-2.624;2022-10-17T10:11:50;18.10;99.90
24148;DHT22;12309;51.450;-2.624;2022-10-17T10:14:23;17.70;99.90
24148;DHT22;12309;51.450;-2.624;2022-10-17T10:16:53;17.80;99.90
24148;DHT22;12309;51.450;-2.624;2022-10-17T10:19:32;17.80;99.90
24148;DHT22;12309;51.450;-2.624;2022-10-17T10:22:03;18.10;99.90
24148;DHT22;12309;51.450;-2.624;2022-10-17T10:24:29;17.90;99.90
24148;DHT22;12309;51.450;-2.624;2022-10-17T10:26:58;17.90;99.90
24148;DHT22;12309;51.450;-2.624;2022-10-17T10:31:52;18.50;99.90
24148;DHT22;12309;51.450;-2.624;2022-10-17T10:34:21;18.90;99.90
24148;DHT22;12309;51.450;-2.624;2022-10-17T10:36:55;18.70;99.90
24148;DHT22;12309;51.450;-2.624;2022-10-17T10:39:48;18.80;99.90
24148;DHT22;12309;51.450;-2.624;2022-10-17T10:44:54;18.60;99.90
24148;DHT22;12309;51.450;-2.624;2022-10-17T10:47:26;18.90;99.90
24148;DHT22;12309;51.450;-2.624;2022-10-17T10:52:54;21.30;99.90
24148;DHT22;12309;51.450;-2.624;2022-10-17T10:55:28;22.00;99.90
24148;DHT22;12309;51.450;-2.624;2022-10-17T10:57:59;23.70;99.90
24148;DHT22;12309;51.450;-2.624;2022-10-17T11:00:27;24.80;99.90
24148;DHT22;12309;51.450;-2.624;2022-10-17T11:05:54;25.70;99.90
24148;DHT22;12309;51.450;-2.624;2022-10-17T11:08:32;25.60;99.90
24148;DHT22;12309;51.450;-2.624;2022-10-17T11:11:11;26.10;99.90
24148;DHT22;12309;51.450;-2.624;2022-10-17T11:16:36;25.60;99.90
24148;DHT22;12309;51.450;-2.624;2022-10-17T11:19:27;26.60;99.90
24148;DHT22;12309;51.450;-2.624;2022-10-17T11:22:14;26.80;99.90
24148;DHT22;12309;51.450;-2.624;2022-10-17T11:24:58;25.70;99.90
24148;DHT22;12309;51.450;-2.624;2022-10-17T11:27:27;25.90;99.90
24148;DHT22;12309;51.450;-2.624;2022-10-17T11:29:54;27.10;99.90
24148;DHT22;12309;51.450;-2.624;2022-10-17T11:32:36;27.10;99.90
24148;DHT22;12309;51.450;-2.624;2022-10-17T11:35:08;25.80;99.90
24148;DHT22;12309;51.450;-2.624;2022-10-17T11:37:43;25.90;99.90
24148;DHT22;12309;51.450;-2.624;2022-10-17T11:40:32;26.40;99.90
24148;DHT22;12309;51.450;-2.624;2022-10-17T11:43:03;26.80;99.90
24148;DHT22;12309;51.450;-2.624;2022-10-17T11:45:35;23.80;99.90
24148;DHT22;12309;51.450;-2.624;2022-10-17T11:48:05;24.10;99.90
24148;DHT22;12309;51.450;-2.624;2022-10-17T11:50:34;25.00;99.90
24148;DHT22;12309;51.450;-2.624;2022-10-17T11:53:07;24.90;99.90
24148;DHT22;12309;51.450;-2.624;2022-10-17T11:55:35;25.80;99.90
24148;DHT22;12309;51.450;-2.624;2022-10-17T11:58:23;25.50;99.90
24148;DHT22;12309;51.450;-2.624;2022-10-17T12:03:42;24.90;99.90
24148;DHT22;12309;51.450;-2.624;2022-10-17T12:17:04;25.60;99.90
24148;DHT22;12309;51.450;-2.624;2022-10-17T12:19:34;26.90;99.90
24148;DHT22;12309;51.450;-2.624;2022-10-17T12:22:20;27.10;99.90
24148;DHT22;12309;51.450;-2.624;2022-10-17T12:27:41;29.00;99.90
24148;DHT22;12309;51.450;-2.624;2022-10-17T12:32:37;27.70;99.90
24148;DHT22;12309;51.450;-2.624;2022-10-17T12:35:03;28.40;99.90
24148;DHT22;12309;51.450;-2.624;2022-10-17T12:45:56;24.20;99.90
24148;DHT22;12309;51.450;-2.624;2022-10-17T12:54:15;26.60;99.90
24148;DHT22;12309;51.450;-2.624;2022-10-17T12:56:47;22.90;99.90
24148;DHT22;12309;51.450;-2.624;2022-10-17T12:59:18;23.40;99.90
24148;DHT22;12309;51.450;-2.624;2022-10-17T13:01:46;24.80;99.90
24148;DHT22;12309;51.450;-2.624;2022-10-17T13:04:13;22.80;99.90
24148;DHT22;12309;51.450;-2.624;2022-10-17T13:06:45;23.90;99.90
24148;DHT22;12309;51.450;-2.624;2022-10-17T13:09:48;23.60;99.90
24148;DHT22;12309;51.450;-2.624;2022-10-17T13:12:20;25.60;99.90
24148;DHT22;12309;51.450;-2.624;2022-10-17T13:14:49;26.10;99.90
24148;DHT22;12309;51.450;-2.624;2022-10-17T13:17:27;26.10;99.90
24148;DHT22;12309;51.450;-2.624;2022-10-17T13:19:55;26.20;99.90
24148;DHT22;12309;51.450;-2.624;2022-10-17T13:22:30;25.20;99.90
24148;DHT22;12309;51.450;-2.624;2022-10-17T13:25:08;25.10;99.90
24148;DHT22;12309;51.450;-2.624;2022-10-17T13:27:37;24.70;99.90
24148;DHT22;12309;51.450;-2.624;2022-10-17T13:32:50;25.90;99.90
24148;DHT22;12309;51.450;-2.624;2022-10-17T13:35:42;25.10;99.90
24148;DHT22;12309;51.450;-2.624;2022-10-17T13:38:07;24.00;99.90
24148;DHT22;12309;51.450;-2.624;2022-10-17T13:40:40;23.10;99.90
24148;DHT22;12309;51.450;-2.624;2022-10-17T13:43:14;23.00;99.90
24148;DHT22;12309;51.450;-2.624;2022-10-17T13:45:48;22.90;99.90
24148;DHT22;12309;51.450;-2.624;2022-10-17T13:48:21;22.70;99.90
24148;DHT22;12309;51.450;-2.624;2022-10-17T13:50:50;23.00;99.90
24148;DHT22;12309;51.450;-2.624;2022-10-17T13:56:04;23.00;99.90
24148;DHT22;12309;51.450;-2.624;2022-10-17T13:58:48;22.30;99.90
24148;DHT22;12309;51.450;-2.624;2022-10-17T14:01:14;21.80;99.90
24148;DHT22;12309;51.450;-2.624;2022-10-17T14:03:41;22.10;99.90
24148;DHT22;12309;51.450;-2.624;2022-10-17T14:11:23;22.90;99.90
24148;DHT22;12309;51.450;-2.624;2022-10-17T14:13:52;22.50;99.90
24148;DHT22;12309;51.450;-2.624;2022-10-17T14:16:19;22.70;99.90
24148;DHT22;12309;51.450;-2.624;2022-10-17T14:18:47;23.30;99.90
24148;DHT22;12309;51.450;-2.624;2022-10-17T14:21:21;22.90;99.90
24148;DHT22;12309;51.450;-2.624;2022-10-17T14:23:48;22.90;99.90
24148;DHT22;12309;51.450;-2.624;2022-10-17T14:26:22;22.80;99.90
24148;DHT22;12309;51.450;-2.624;2022-10-17T14:29:02;22.70;99.90
24148;DHT22;12309;51.450;-2.624;2022-10-17T14:31:34;22.30;99.90
24148;DHT22;12309;51.450;-2.624;2022-10-17T14:34:01;21.70;99.90
24148;DHT22;12309;51.450;-2.624;2022-10-17T14:36:38;21.00;99.90
24148;DHT22;12309;51.450;-2.624;2022-10-17T14:39:06;21.20;99.90
24148;DHT22;12309;51.450;-2.624;2022-10-17T14:41:34;20.90;99.90
24148;DHT22;12309;51.450;-2.624;2022-10-17T14:44:06;20.30;99.90
24148;DHT22;12309;51.450;-2.624;2022-10-17T14:46:34;20.40;99.90
24148;DHT22;12309;51.450;-2.624;2022-10-17T14:49:06;19.90;99.90
24148;DHT22;12309;51.450;-2.624;2022-10-17T14:51:33;19.90;99.90
24148;DHT22;12309;51.450;-2.624;2022-10-17T14:54:18;19.70;99.90
24148;DHT22;12309;51.450;-2.624;2022-10-17T14:56:51;19.70;99.90
24148;DHT22;12309;51.450;-2.624;2022-10-17T15:01:49;19.80;99.90
24148;DHT22;12309;51.450;-2.624;2022-10-17T15:06:41;19.50;99.90
24148;DHT22;12309;51.450;-2.624;2022-10-17T15:09:09;19.60;99.90
24148;DHT22;12309;51.450;-2.624;2022-10-17T15:16:31;19.60;99.90
24148;DHT22;12309;51.450;-2.624;2022-10-17T15:18:56;19.40;99.90
24148;DHT22;12309;51.450;-2.624;2022-10-17T15:31:21;22.20;99.90
24148;DHT22;12309;51.450;-2.624;2022-10-17T15:33:47;22.70;99.90
24148;DHT22;12309;51.450;-2.624;2022-10-17T15:36:31;22.50;99.90
24148;DHT22;12309;51.450;-2.624;2022-10-17T15:38:59;23.20;99.90
24148;DHT22;12309;51.450;-2.624;2022-10-17T15:41:30;23.60;99.90
24148;DHT22;12309;51.450;-2.624;2022-10-17T15:43:56;23.70;99.90
24148;DHT22;12309;51.450;-2.624;2022-10-17T15:46:27;24.00;99.90
24148;DHT22;12309;51.450;-2.624;2022-10-17T15:48:54;24.30;99.90
24148;DHT22;12309;51.450;-2.624;2022-10-17T15:51:21;24.70;99.90
24148;DHT22;12309;51.450;-2.624;2022-10-17T15:53:47;24.90;99.90
24148;DHT22;12309;51.450;-2.624;2022-10-17T15:56:24;25.10;99.90
24148;DHT22;12309;51.450;-2.624;2022-10-17T15:58:50;25.10;99.90
24148;DHT22;12309;51.450;-2.624;2022-10-17T16:01:25;25.00;99.90
24148;DHT22;12309;51.450;-2.624;2022-10-17T16:03:52;25.10;99.90
24148;DHT22;12309;51.450;-2.624;2022-10-17T16:06:18;24.40;99.90
24148;DHT22;12309;51.450;-2.624;2022-10-17T16:08:45;24.20;99.90
24148;DHT22;12309;51.450;-2.624;2022-10-17T16:11:16;23.80;99.90
24148;DHT22;12309;51.450;-2.624;2022-10-17T16:13:45;23.90;99.90
24148;DHT22;12309;51.450;-2.624;2022-10-17T16:16:11;23.90;99.90
24148;DHT22;12309;51.450;-2.624;2022-10-17T16:18:37;23.80;99.90
24148;DHT22;12309;51.450;-2.624;2022-10-17T16:21:03;23.10;99.90
24148;DHT22;12309;51.450;-2.624;2022-10-17T16:23:28;22.80;99.90
24148;DHT22;12309;51.450;-2.624;2022-10-17T16:25:54;21.50;99.90
24148;DHT22;12309;51.450;-2.624;2022-10-17T16:28:20;21.50;99.90
24148;DHT22;12309;51.450;-2.624;2022-10-17T16:33:11;19.80;99.90
24148;DHT22;12309;51.450;-2.624;2022-10-17T16:35:38;19.50;99.90
24148;DHT22;12309;51.450;-2.624;2022-10-17T16:38:05;19.70;99.90
24148;DHT22;12309;51.450;-2.624;2022-10-17T16:40:31;19.00;99.90
24148;DHT22;12309;51.450;-2.624;2022-10-17T16:42:56;18.90;99.90
24148;DHT22;12309;51.450;-2.624;2022-10-17T16:47:48;18.70;99.90
24148;DHT22;12309;51.450;-2.624;2022-10-17T16:55:07;18.40;99.90
24148;DHT22;12309;51.450;-2.624;2022-10-17T16:57:34;17.80;99.90
24148;DHT22;12309;51.450;-2.624;2022-10-17T17:07:18;17.30;99.90
24148;DHT22;12309;51.450;-2.624;2022-10-17T17:12:11;17.00;99.90
24148;DHT22;12309;51.450;-2.624;2022-10-17T17:14:37;16.80;99.90
24148;DHT22;12309;51.450;-2.624;2022-10-17T17:24:21;16.30;99.90
24148;DHT22;12309;51.450;-2.624;2022-10-17T17:26:54;16.00;99.90
24148;DHT22;12309;51.450;-2.624;2022-10-17T17:29:23;15.90;99.90
24148;DHT22;12309;51.450;-2.624;2022-10-17T17:31:50;15.90;99.90
24148;DHT22;12309;51.450;-2.624;2022-10-17T17:34:16;15.50;99.90
24148;DHT22;12309;51.450;-2.624;2022-10-17T17:39:11;15.40;99.90
24148;DHT22;12309;51.450;-2.624;2022-10-17T17:41:37;15.70;99.90
24148;DHT22;12309;51.450;-2.624;2022-10-17T17:44:04;15.30;99.90
24148;DHT22;12309;51.450;-2.624;2022-10-17T17:46:30;15.50;99.90
24148;DHT22;12309;51.450;-2.624;2022-10-17T17:51:23;15.00;99.90
24148;DHT22;12309;51.450;-2.624;2022-10-17T17:56:21;15.00;99.90
24148;DHT22;12309;51.450;-2.624;2022-10-17T17:58:51;14.80;99.90
24148;DHT22;12309;51.450;-2.624;2022-10-17T18:01:20;14.80;99.90
24148;DHT22;12309;51.450;-2.624;2022-10-17T18:06:14;14.60;99.90
24148;DHT22;12309;51.450;-2.624;2022-10-17T18:08:43;14.90;99.90
24148;DHT22;12309;51.450;-2.624;2022-10-17T18:28:19;13.90;99.90
24148;DHT22;12309;51.450;-2.624;2022-10-17T18:33:11;14.40;99.90
24148;DHT22;12309;51.450;-2.624;2022-10-17T18:45:21;14.30;99.90
24148;DHT22;12309;51.450;-2.624;2022-10-17T19:09:47;13.80;99.90
24148;DHT22;12309;51.450;-2.624;2022-10-17T19:19:31;13.50;99.90
24148;DHT22;12309;51.450;-2.624;2022-10-17T19:29:27;13.60;99.90
24148;DHT22;12309;51.450;-2.624;2022-10-17T19:34:21;13.10;99.90
24148;DHT22;12309;51.450;-2.624;2022-10-17T19:46:38;13.30;99.90
24148;DHT22;12309;51.450;-2.624;2022-10-17T19:53:57;13.00;99.90